createdAt,value
2023-05-25T00:01:59.582Z,8.00
2023-05-25T00:04:30.625Z,7.83
2023-05-25T00:06:59.194Z,7.47
2023-05-25T00:09:27.773Z,7.90
2023-05-25T00:11:56.373Z,7.80
2023-05-25T00:14:24.858Z,7.37
2023-05-25T00:16:53.255Z,6.90
2023-05-25T00:19:23.453Z,7.50
2023-05-25T00:21:52.377Z,7.63
2023-05-25T00:24:20.883Z,7.77
2023-05-25T00:26:49.243Z,8.33
2023-05-25T00:29:17.661Z,8.63
2023-05-25T00:31:46.085Z,8.93
2023-05-25T00:34:14.394Z,8.87
2023-05-25T00:36:48.282Z,8.50
2023-05-25T00:39:16.774Z,8.43
2023-05-25T00:41:47.055Z,8.63
2023-05-25T00:44:21.337Z,8.70
2023-05-25T00:46:52.086Z,9.60
2023-05-25T00:49:23.254Z,10.00
2023-05-25T00:51:54.322Z,8.63
2023-05-25T00:54:22.744Z,8.73
2023-05-25T00:56:54.550Z,9.30
2023-05-25T00:59:31.332Z,8.90
2023-05-25T01:02:04.742Z,9.00
2023-05-25T01:04:37.154Z,9.13
2023-05-25T01:07:11.438Z,9.27
2023-05-25T01:09:42.991Z,8.70
2023-05-25T01:12:12.050Z,9.30
2023-05-25T01:14:42.768Z,9.67
2023-05-25T01:17:11.900Z,8.83
2023-05-25T01:19:41.465Z,9.23
2023-05-25T01:22:21.228Z,9.13
2023-05-25T01:24:54.539Z,9.00
2023-05-25T01:27:32.585Z,9.37
2023-05-25T01:30:03.432Z,9.83
2023-05-25T01:32:34.918Z,9.57
2023-05-25T01:35:05.082Z,10.20
2023-05-25T01:37:37.558Z,9.20
2023-05-25T01:40:06.777Z,10.30
2023-05-25T01:42:35.028Z,10.60
2023-05-25T01:45:07.903Z,10.70
2023-05-25T01:47:47.945Z,9.53
2023-05-25T01:50:25.212Z,10.07
2023-05-25T01:53:03.776Z,9.37
2023-05-25T01:55:38.906Z,9.70
2023-05-25T01:58:10.722Z,9.73
2023-05-25T02:00:41.662Z,11.20
2023-05-25T02:03:14.092Z,9.93
2023-05-25T02:05:45.097Z,9.70
2023-05-25T02:08:14.981Z,9.80
2023-05-25T02:10:46.255Z,10.50
2023-05-25T02:13:14.739Z,11.23
2023-05-25T02:15:44.270Z,11.97
2023-05-25T02:18:13.780Z,11.67
2023-05-25T02:20:42.180Z,10.60
2023-05-25T02:23:10.596Z,10.00
2023-05-25T02:25:42.759Z,10.67
2023-05-25T02:28:11.625Z,10.80
2023-05-25T02:30:40.487Z,10.93
2023-05-25T02:33:09.146Z,11.03
2023-05-25T02:35:38.323Z,11.67
2023-05-25T02:38:07.521Z,13.23
2023-05-25T02:40:35.871Z,11.37
2023-05-25T02:43:05.711Z,11.20
2023-05-25T02:45:34.402Z,10.80
2023-05-25T02:48:02.816Z,10.27
2023-05-25T02:50:34.119Z,12.13
2023-05-25T02:53:06.724Z,9.70
2023-05-25T02:55:34.913Z,12.40
2023-05-25T02:58:05.258Z,11.07
2023-05-25T03:00:54.674Z,9.90
2023-05-25T03:03:23.158Z,10.20
2023-05-25T03:05:51.834Z,9.90
2023-05-25T03:08:20.219Z,11.13
2023-05-25T03:10:49.440Z,10.30
2023-05-25T03:13:20.160Z,8.93
2023-05-25T03:15:48.512Z,11.10
2023-05-25T03:18:17.457Z,10.80
2023-05-25T03:20:45.839Z,11.80
2023-05-25T03:23:14.687Z,10.77
2023-05-25T03:25:43.377Z,9.93
2023-05-25T03:28:11.987Z,11.47
2023-05-25T03:30:42.135Z,12.90
2023-05-25T03:33:13.836Z,11.70
2023-05-25T03:35:46.483Z,10.73
2023-05-25T03:38:14.911Z,11.10
2023-05-25T03:40:43.919Z,12.07
2023-05-25T03:43:12.225Z,10.50
2023-05-25T03:45:42.221Z,11.73
2023-05-25T03:48:11.854Z,11.10
2023-05-25T03:50:40.923Z,11.67
2023-05-25T03:53:09.640Z,11.30
2023-05-25T03:55:38.062Z,10.60
2023-05-25T03:58:07.009Z,10.20
2023-05-25T04:00:35.340Z,10.50
2023-05-25T04:03:06.942Z,9.13
2023-05-25T04:05:35.320Z,9.40
2023-05-25T04:08:03.578Z,9.50
2023-05-25T04:10:31.994Z,10.20
2023-05-25T04:13:00.992Z,10.83
2023-05-25T04:15:30.470Z,10.60
2023-05-25T04:18:07.466Z,10.50
2023-05-25T04:20:36.812Z,9.23
2023-05-25T04:23:06.181Z,10.20
2023-05-25T04:25:35.285Z,8.87
2023-05-25T04:28:03.843Z,9.50
2023-05-25T04:31:01.755Z,9.77
2023-05-25T04:33:45.563Z,10.47
2023-05-25T04:36:18.730Z,9.07
2023-05-25T04:38:47.965Z,9.73
2023-05-25T04:41:16.525Z,10.23
2023-05-25T04:44:05.636Z,9.13
2023-05-25T04:46:39.070Z,9.20
2023-05-25T04:49:09.967Z,9.63
2023-05-25T04:51:38.432Z,10.07
2023-05-25T04:54:10.560Z,9.50
2023-05-25T04:56:40.356Z,9.73
2023-05-25T04:59:08.652Z,9.93
2023-05-25T05:01:40.873Z,10.47
2023-05-25T05:04:12.405Z,8.83
2023-05-25T05:06:40.830Z,9.50
2023-05-25T05:09:10.473Z,8.70
2023-05-25T05:11:38.753Z,9.40
2023-05-25T05:14:09.912Z,8.77
2023-05-25T05:16:38.272Z,9.97
2023-05-25T05:19:06.612Z,8.50
2023-05-25T05:21:36.349Z,8.50
2023-05-25T05:24:07.576Z,9.87
2023-05-25T05:26:48.153Z,8.93
2023-05-25T05:29:28.690Z,8.87
2023-05-25T05:31:57.498Z,9.37
2023-05-25T05:34:26.867Z,9.50
2023-05-25T05:36:58.437Z,9.47
2023-05-25T05:39:29.063Z,10.00
2023-05-25T05:41:57.553Z,9.30
2023-05-25T05:44:29.054Z,8.90
2023-05-25T05:47:01.543Z,9.47
2023-05-25T05:49:31.696Z,8.80
2023-05-25T05:52:06.996Z,9.03
2023-05-25T05:54:35.953Z,9.20
2023-05-25T05:57:09.535Z,10.37
2023-05-25T05:59:37.802Z,10.00
2023-05-25T06:02:07.443Z,8.77
2023-05-25T06:04:35.879Z,8.50
2023-05-25T06:07:06.351Z,9.40
2023-05-25T06:09:34.719Z,9.13
2023-05-25T06:12:03.592Z,10.43
2023-05-25T06:14:32.134Z,8.60
2023-05-25T06:17:03.495Z,8.53
2023-05-25T06:19:32.107Z,8.73
2023-05-25T06:22:00.563Z,9.03
2023-05-25T06:24:31.303Z,9.33
2023-05-25T06:26:59.555Z,9.00
2023-05-25T06:29:27.846Z,8.40
2023-05-25T06:31:56.228Z,7.87
2023-05-25T06:34:25.998Z,8.97
2023-05-25T06:36:54.844Z,8.70
2023-05-25T06:39:23.484Z,8.23
2023-05-25T06:41:53.993Z,8.00
2023-05-25T06:44:31.834Z,8.20
2023-05-25T06:47:03.740Z,8.20
2023-05-25T06:49:32.770Z,7.20
2023-05-25T06:52:01.052Z,7.93
2023-05-25T06:54:29.373Z,7.63
2023-05-25T06:56:58.969Z,7.97
2023-05-25T06:59:27.216Z,7.10
2023-05-25T07:01:56.495Z,6.97
2023-05-25T07:04:24.885Z,8.17
2023-05-25T07:06:53.248Z,7.97
2023-05-25T07:09:21.856Z,7.40
2023-05-25T07:11:50.084Z,6.80
2023-05-25T07:14:19.911Z,7.43
2023-05-25T07:16:48.298Z,7.57
2023-05-25T07:19:16.595Z,7.70
2023-05-25T07:21:44.850Z,7.40
2023-05-25T07:24:13.066Z,6.80
2023-05-25T07:26:41.314Z,7.10
2023-05-25T07:29:09.633Z,7.20
2023-05-25T07:31:39.564Z,7.00
2023-05-25T07:34:08.046Z,6.87
2023-05-25T07:36:36.407Z,6.27
2023-05-25T07:39:05.022Z,6.90
2023-05-25T07:41:33.764Z,6.80
2023-05-25T07:44:02.038Z,8.10
2023-05-25T07:46:30.571Z,6.70
2023-05-25T07:49:00.398Z,6.07
2023-05-25T07:51:31.241Z,6.07
2023-05-25T07:53:59.524Z,6.10
2023-05-25T07:56:28.828Z,7.07
2023-05-25T07:58:58.047Z,6.53
2023-05-25T08:01:27.157Z,5.93
2023-05-25T08:03:55.737Z,6.10
2023-05-25T08:06:25.863Z,6.30
2023-05-25T08:08:54.165Z,6.00
2023-05-25T08:11:26.381Z,6.10
2023-05-25T08:13:54.636Z,5.97
2023-05-25T08:16:22.974Z,5.37
2023-05-25T08:18:51.463Z,6.30
2023-05-25T08:21:19.830Z,5.53
2023-05-25T08:23:50.741Z,5.80
2023-05-25T08:26:37.940Z,6.50
2023-05-25T08:29:07.877Z,7.27
2023-05-25T08:31:37.383Z,5.50
2023-05-25T08:34:05.726Z,5.93
2023-05-25T08:36:36.076Z,6.57
2023-05-25T08:39:08.228Z,6.30
2023-05-25T08:41:38.056Z,6.40
2023-05-25T08:44:08.785Z,6.40
2023-05-25T08:46:37.437Z,6.40
2023-05-25T08:49:11.621Z,6.80
2023-05-25T08:51:46.412Z,7.00
2023-05-25T08:54:19.367Z,5.40
2023-05-25T08:56:52.299Z,5.23
2023-05-25T08:59:36.846Z,5.83
2023-05-25T09:02:31.456Z,6.17
2023-05-25T09:05:01.343Z,4.90
2023-05-25T09:07:32.270Z,6.87
2023-05-25T09:10:03.193Z,5.40
2023-05-25T09:12:32.426Z,6.27
2023-05-25T09:15:01.096Z,5.60
2023-05-25T09:17:29.894Z,6.57
2023-05-25T09:19:58.436Z,5.90
2023-05-25T09:22:26.881Z,4.93
2023-05-25T09:24:55.598Z,5.73
2023-05-25T09:27:25.368Z,5.20
2023-05-25T09:29:53.947Z,5.20
2023-05-25T09:32:22.439Z,5.50
2023-05-25T09:34:51.374Z,6.30
2023-05-25T09:37:20.086Z,5.60
2023-05-25T09:39:49.172Z,5.20
2023-05-25T09:42:18.162Z,5.37
2023-05-25T09:44:47.768Z,5.40
2023-05-25T09:47:17.063Z,5.90
2023-05-25T09:49:47.594Z,6.50
2023-05-25T09:52:17.550Z,6.83
2023-05-25T09:54:46.891Z,5.47
2023-05-25T09:57:16.144Z,5.70
2023-05-25T09:59:45.590Z,5.17
2023-05-25T10:02:16.279Z,5.90
2023-05-25T10:04:46.414Z,5.87
2023-05-25T10:07:16.110Z,6.27
2023-05-25T10:09:48.481Z,6.03
2023-05-25T10:12:20.908Z,6.40
2023-05-25T10:14:54.422Z,6.53
2023-05-25T10:17:25.671Z,7.10
2023-05-25T10:19:58.629Z,6.10
2023-05-25T10:22:33.616Z,6.10
2023-05-25T10:25:14.905Z,6.93
2023-05-25T10:27:48.931Z,6.80
2023-05-25T10:30:17.259Z,6.03
2023-05-25T10:32:50.305Z,6.33
2023-05-25T10:35:20.616Z,6.20
2023-05-25T10:37:52.246Z,5.60
2023-05-25T10:40:22.802Z,6.70
2023-05-25T10:42:51.805Z,4.90
2023-05-25T10:45:21.034Z,5.20
2023-05-25T10:47:51.282Z,4.80
2023-05-25T10:50:26.270Z,4.60
2023-05-25T10:53:02.383Z,4.20
2023-05-25T10:55:42.863Z,4.70
2023-05-25T10:58:13.805Z,4.23
2023-05-25T11:00:44.933Z,3.77
2023-05-25T11:03:14.647Z,4.30
2023-05-25T11:05:51.245Z,3.70
2023-05-25T11:08:23.624Z,4.23
2023-05-25T11:10:55.221Z,3.87
2023-05-25T11:13:41.340Z,3.70
2023-05-25T11:16:24.757Z,3.83
2023-05-25T11:18:58.623Z,3.77
2023-05-25T11:21:45.992Z,3.60
2023-05-25T11:24:17.238Z,3.73
2023-05-25T11:27:01.560Z,4.37
2023-05-25T11:29:33.364Z,3.30
2023-05-25T11:32:03.012Z,3.87
2023-05-25T11:34:33.421Z,4.80
2023-05-25T11:37:04.841Z,4.60
2023-05-25T11:39:33.394Z,4.50
2023-05-25T11:42:07.078Z,4.70
2023-05-25T11:44:38.058Z,4.07
2023-05-25T11:47:13.469Z,4.63
2023-05-25T11:49:46.298Z,4.20
2023-05-25T11:52:16.168Z,4.80
2023-05-25T11:54:45.535Z,5.47
2023-05-25T11:57:19.076Z,5.20
2023-05-25T11:59:51.563Z,4.70
2023-05-25T12:02:20.601Z,5.03
2023-05-25T12:04:57.781Z,5.30
2023-05-25T12:07:28.400Z,5.83
2023-05-25T12:10:07.685Z,5.00
2023-05-25T12:12:41.624Z,5.57
2023-05-25T12:15:12.600Z,5.60
2023-05-25T12:17:44.034Z,5.63
2023-05-25T12:20:15.343Z,4.77
2023-05-25T12:22:45.123Z,5.10
2023-05-25T12:25:15.954Z,5.90
2023-05-25T12:27:44.485Z,6.03
2023-05-25T12:30:13.072Z,5.80
2023-05-25T12:33:03.773Z,6.07
2023-05-25T12:35:47.572Z,5.97
2023-05-25T12:38:18.558Z,5.97
2023-05-25T12:40:47.120Z,5.70
2023-05-25T12:43:17.618Z,4.80
2023-05-25T12:45:46.158Z,4.90
2023-05-25T12:48:14.516Z,5.10
2023-05-25T12:50:59.307Z,4.90
2023-05-25T12:53:29.081Z,6.10
2023-05-25T12:56:04.637Z,5.60
2023-05-25T12:58:32.977Z,5.03
2023-05-25T13:01:01.455Z,6.40
2023-05-25T13:03:32.305Z,5.37
2023-05-25T13:06:06.229Z,5.30
2023-05-25T13:08:34.656Z,5.43
2023-05-25T13:11:03.720Z,4.40
2023-05-25T13:13:32.047Z,4.50
2023-05-25T13:16:00.399Z,4.77
2023-05-25T13:18:28.635Z,4.57
2023-05-25T13:20:57.557Z,5.03
2023-05-25T13:23:27.542Z,4.47
2023-05-25T13:25:55.924Z,4.70
2023-05-25T13:28:24.246Z,5.40
2023-05-25T13:30:52.728Z,4.97
2023-05-25T13:33:21.690Z,6.10
2023-05-25T13:35:59.276Z,5.77
2023-05-25T13:38:29.653Z,6.10
2023-05-25T13:40:58.269Z,6.27
2023-05-25T13:43:26.711Z,5.50
2023-05-25T13:45:55.617Z,5.30
2023-05-25T13:48:24.230Z,5.30
2023-05-25T13:50:52.553Z,5.20
2023-05-25T13:53:20.747Z,5.30
2023-05-25T13:55:50.386Z,4.77
2023-05-25T13:58:18.788Z,4.57
2023-05-25T14:00:47.516Z,5.87
2023-05-25T14:03:15.905Z,5.33
2023-05-25T14:05:46.879Z,6.30
2023-05-25T14:08:15.792Z,5.00
2023-05-25T14:10:44.522Z,5.80
2023-05-25T14:13:14.416Z,5.50
2023-05-25T14:15:43.070Z,4.73
2023-05-25T14:18:11.822Z,4.90
2023-05-25T14:20:41.272Z,4.60
2023-05-25T14:23:11.873Z,5.03
2023-05-25T14:25:42.278Z,5.00
2023-05-25T14:28:10.667Z,5.10
2023-05-25T14:30:40.490Z,5.07
2023-05-25T14:33:13.978Z,5.13
2023-05-25T14:35:42.958Z,4.47
2023-05-25T14:38:11.912Z,4.93
2023-05-25T14:40:40.159Z,5.33
2023-05-25T14:43:08.475Z,6.03
2023-05-25T14:45:36.781Z,4.63
2023-05-25T14:48:16.668Z,5.07
2023-05-25T14:50:45.865Z,4.87
2023-05-25T14:53:14.164Z,4.70
2023-05-25T14:55:42.604Z,4.80
2023-05-25T14:58:11.151Z,4.90
2023-05-25T15:00:39.387Z,5.03
2023-05-25T15:03:09.157Z,5.90
2023-05-25T15:05:37.471Z,5.00
2023-05-25T15:08:05.788Z,5.30
2023-05-25T15:10:34.172Z,5.40
2023-05-25T15:13:02.451Z,5.73
2023-05-25T15:15:30.816Z,5.00
2023-05-25T15:17:59.097Z,5.40
2023-05-25T15:20:28.951Z,5.07
2023-05-25T15:22:57.230Z,5.43
2023-05-25T15:27:59.766Z,5.50
2023-05-25T15:30:28.427Z,5.67
2023-05-25T15:32:56.795Z,6.03
2023-05-25T15:35:30.966Z,5.10
2023-05-25T15:38:01.222Z,5.20
2023-05-25T15:40:29.777Z,5.00
2023-05-25T15:42:58.110Z,6.20
2023-05-25T15:45:26.793Z,5.50
2023-05-25T15:47:55.574Z,5.67
2023-05-25T15:50:23.908Z,5.53
2023-05-25T15:52:52.210Z,5.37
2023-05-25T15:55:22.204Z,4.87
2023-05-25T15:57:50.533Z,5.60
2023-05-25T16:00:19.604Z,5.77
2023-05-25T16:02:47.867Z,4.30
2023-05-25T16:05:16.321Z,5.67
2023-05-25T16:07:44.592Z,6.20
2023-05-25T16:10:12.972Z,5.40
2023-05-25T16:12:42.581Z,5.97
2023-05-25T16:15:11.446Z,5.70
2023-05-25T16:17:39.689Z,5.67
2023-05-25T16:20:10.593Z,5.87
2023-05-25T16:22:38.862Z,6.03
2023-05-25T16:25:08.664Z,5.40
2023-05-25T16:27:37.065Z,6.00
2023-05-25T16:30:10.535Z,6.23
2023-05-25T16:32:40.052Z,5.43
2023-05-25T16:35:09.390Z,5.03
2023-05-25T16:37:37.700Z,6.00
2023-05-25T16:40:07.069Z,5.97
2023-05-25T16:42:35.643Z,5.77
2023-05-25T16:45:04.123Z,6.00
2023-05-25T16:47:33.821Z,5.60
2023-05-25T16:50:02.129Z,6.57
2023-05-25T16:52:30.407Z,5.90
2023-05-25T16:54:59.284Z,5.80
2023-05-25T16:57:27.727Z,5.93
2023-05-25T16:59:56.015Z,5.23
2023-05-25T17:02:24.461Z,5.83
2023-05-25T17:04:54.126Z,6.10
2023-05-25T17:07:22.459Z,5.90
2023-05-25T17:09:50.891Z,6.87
2023-05-25T17:12:19.173Z,7.27
2023-05-25T17:14:47.301Z,6.57
2023-05-25T17:17:16.521Z,5.90
2023-05-25T17:19:44.897Z,6.33
2023-05-25T17:22:14.621Z,6.10
2023-05-25T17:24:42.967Z,6.40
2023-05-25T17:27:11.291Z,6.00
2023-05-25T17:29:39.736Z,6.40
2023-05-25T17:32:08.296Z,6.13
2023-05-25T17:34:36.677Z,5.23
2023-05-25T17:37:05.209Z,6.83
2023-05-25T17:39:35.036Z,5.47
2023-05-25T17:42:03.725Z,5.80
2023-05-25T17:44:32.235Z,5.70
2023-05-25T17:47:00.594Z,6.40
2023-05-25T17:49:28.899Z,6.87
2023-05-25T17:51:57.072Z,6.93
2023-05-25T17:54:27.323Z,6.00
2023-05-25T17:56:57.400Z,6.30
2023-05-25T17:59:25.808Z,6.50
2023-05-25T18:01:54.034Z,6.57
2023-05-25T18:04:22.342Z,6.87
2023-05-25T18:06:51.867Z,5.67
2023-05-25T18:09:20.462Z,6.17
2023-05-25T18:11:49.053Z,7.37
2023-05-25T18:14:18.880Z,6.57
2023-05-25T18:16:47.171Z,6.93
2023-05-25T18:19:17.854Z,6.63
2023-05-25T18:21:46.168Z,6.63
2023-05-25T18:24:14.588Z,8.53
2023-05-25T18:26:42.757Z,6.80
2023-05-25T18:29:11.051Z,6.63
2023-05-25T18:31:45.652Z,7.70
2023-05-25T18:34:14.441Z,6.23
2023-05-25T18:36:42.691Z,7.53
2023-05-25T18:39:11.278Z,6.43
2023-05-25T18:41:41.885Z,6.73
2023-05-25T18:44:10.275Z,7.23
2023-05-25T18:46:42.289Z,7.00
2023-05-25T18:49:10.872Z,6.93
2023-05-25T18:51:39.587Z,5.87
2023-05-25T18:54:07.854Z,6.93
2023-05-25T18:56:36.497Z,7.20
2023-05-25T18:59:04.889Z,6.83
2023-05-25T19:01:33.148Z,7.30
2023-05-25T19:04:03.185Z,7.00
2023-05-25T19:06:32.452Z,7.57
2023-05-25T19:09:00.867Z,7.10
2023-05-25T19:11:29.344Z,6.63
2023-05-25T19:13:57.638Z,8.97
2023-05-25T19:16:25.889Z,7.40
2023-05-25T19:18:54.217Z,7.13
2023-05-25T19:21:26.778Z,6.90
2023-05-25T19:23:56.293Z,8.00
2023-05-25T19:26:24.705Z,7.43
2023-05-25T19:28:53.105Z,7.30
2023-05-25T19:31:23.426Z,7.63
2023-05-25T19:33:52.113Z,7.10
2023-05-25T19:36:21.121Z,8.00
2023-05-25T19:38:51.010Z,7.10
2023-05-25T19:41:19.371Z,6.57
2023-05-25T19:43:48.399Z,7.23
2023-05-25T19:46:16.960Z,7.10
2023-05-25T19:48:45.357Z,7.83
2023-05-25T19:51:13.596Z,7.53
2023-05-25T19:53:42.100Z,7.30
2023-05-25T19:56:11.634Z,7.17
2023-05-25T19:58:39.904Z,7.07
2023-05-25T20:01:08.257Z,7.73
2023-05-25T20:03:36.832Z,8.90
2023-05-25T20:06:06.066Z,8.00
2023-05-25T20:08:34.610Z,7.80
2023-05-25T20:11:02.921Z,7.90
2023-05-25T20:13:32.708Z,6.77
2023-05-25T20:16:01.024Z,7.33
2023-05-25T20:18:29.306Z,6.80
2023-05-25T20:20:57.622Z,7.40
2023-05-25T20:23:25.836Z,7.03
2023-05-25T20:25:54.089Z,7.60
2023-05-25T20:28:22.464Z,8.50
2023-05-25T20:30:52.598Z,6.70
2023-05-25T20:33:21.759Z,7.30
2023-05-25T20:35:50.058Z,6.93
2023-05-25T20:38:18.298Z,7.10
2023-05-25T20:40:47.057Z,7.50
2023-05-25T20:43:15.396Z,8.20
2023-05-25T20:45:44.122Z,8.00
2023-05-25T20:48:14.790Z,7.50
2023-05-25T20:50:43.183Z,7.73
2023-05-25T20:53:11.777Z,8.30
2023-05-25T20:55:40.079Z,8.77
2023-05-25T20:58:08.614Z,7.77
2023-05-25T21:00:36.998Z,7.30
2023-05-25T21:03:08.432Z,7.70
2023-05-25T21:05:38.630Z,6.70
2023-05-25T21:08:06.863Z,7.57
2023-05-25T21:10:35.201Z,7.93
2023-05-25T21:13:03.672Z,8.40
2023-05-25T21:15:32.862Z,7.93
2023-05-25T21:18:03.791Z,8.13
2023-05-25T21:20:33.472Z,7.20
2023-05-25T21:23:03.418Z,9.13
2023-05-25T21:25:32.076Z,7.73
2023-05-25T21:28:00.333Z,8.90
2023-05-25T21:30:28.992Z,7.20
2023-05-25T21:32:57.569Z,6.63
2023-05-25T21:35:25.876Z,8.30
2023-05-25T21:37:54.337Z,7.57
2023-05-25T21:40:24.150Z,7.67
2023-05-25T21:42:54.423Z,7.60
2023-05-25T21:45:22.913Z,7.93
2023-05-25T21:47:51.436Z,7.67
2023-05-25T21:50:20.074Z,7.03
2023-05-25T21:52:49.527Z,8.30
2023-05-25T21:55:17.878Z,6.73
2023-05-25T21:57:47.464Z,7.03
2023-05-25T22:00:17.697Z,6.70
2023-05-25T22:02:46.025Z,8.00
2023-05-25T22:05:15.700Z,6.87
2023-05-25T22:07:44.088Z,7.67
2023-05-25T22:10:12.613Z,8.43
2023-05-25T22:12:40.878Z,6.87
2023-05-25T22:15:11.481Z,8.90
2023-05-25T22:17:39.842Z,7.23
2023-05-25T22:20:09.731Z,8.00
2023-05-25T22:22:38.151Z,9.50
2023-05-25T22:25:07.798Z,8.80
2023-05-25T22:27:36.020Z,7.60
2023-05-25T22:30:04.712Z,8.00
2023-05-25T22:32:35.158Z,7.90
2023-05-25T22:35:03.716Z,7.97
2023-05-25T22:37:32.037Z,8.10
2023-05-25T22:40:00.485Z,8.33
2023-05-25T22:42:28.829Z,7.70
2023-05-25T22:44:57.268Z,7.60
2023-05-25T22:47:27.060Z,7.80
2023-05-25T22:49:57.047Z,9.00
2023-05-25T22:52:25.383Z,8.50
2023-05-25T22:54:53.724Z,9.13
2023-05-25T22:57:22.021Z,7.40
2023-05-25T22:59:50.775Z,8.97
2023-05-25T23:02:19.069Z,8.77
2023-05-25T23:04:47.667Z,8.87
2023-05-25T23:07:17.300Z,7.33
2023-05-25T23:09:46.805Z,6.90
2023-05-25T23:12:15.143Z,7.87
2023-05-25T23:14:44.498Z,7.77
2023-05-25T23:17:12.973Z,8.40
2023-05-25T23:19:41.323Z,7.07
2023-05-25T23:22:09.663Z,7.80
2023-05-25T23:24:40.432Z,8.30
2023-05-25T23:27:09.040Z,8.10
2023-05-25T23:29:37.367Z,7.40
2023-05-25T23:32:06.835Z,8.00
2023-05-25T23:34:35.270Z,7.67
2023-05-25T23:37:06.432Z,7.20
2023-05-25T23:39:35.007Z,8.20
2023-05-25T23:42:04.930Z,7.97
2023-05-25T23:44:33.265Z,8.17
2023-05-25T23:47:01.510Z,7.70
2023-05-25T23:49:29.873Z,7.83
2023-05-25T23:51:58.107Z,7.97
2023-05-25T23:54:26.449Z,8.97
2023-05-25T23:56:54.740Z,9.30
2023-05-25T23:59:24.715Z,8.40
